Terminal Aerodrome Forecast
Issued by NWS

Home | Current Version | Previous Version | Text Only | Print | Product List | Glossary Off
Versions: 1 2 3 4 5 6 7 8 9 10 11 12 13 14 15 16

000
FTUS43 KMPX 242343
TAFAXN
TAF
KAXN 242343Z 2500/2524 11013KT 2SM -RA BR OVC006
     FM250500 09010KT 2SM BR OVC004
     FM251400 08010KT 4SM BR OVC010
     FM251900 08012G18KT P6SM SCT030 OVC050=

USA.gov is the U.S. government's official web portal to all federal, state and local government web resources and services.